createdAt,value
2018-05-12T00:00:01.695Z,20.67
2018-05-12T00:02:29.159Z,21.60
2018-05-12T00:04:56.619Z,20.93
2018-05-12T00:07:24.052Z,23.33
2018-05-12T00:09:51.506Z,24.83
2018-05-12T00:12:18.954Z,20.47
2018-05-12T00:14:46.410Z,16.83
2018-05-12T00:17:13.869Z,22.23
2018-05-12T00:19:41.330Z,19.60
2018-05-12T00:22:08.800Z,22.10
2018-05-12T00:24:36.241Z,24.27
2018-05-12T00:27:03.698Z,24.03
2018-05-12T00:29:31.141Z,22.10
2018-05-12T00:31:58.591Z,22.57
2018-05-12T00:34:26.046Z,24.53
2018-05-12T00:36:53.559Z,23.13
2018-05-12T00:39:21.001Z,25.90
2018-05-12T00:41:48.441Z,26.53
2018-05-12T00:44:15.887Z,20.83
2018-05-12T00:46:43.470Z,25.63
2018-05-12T00:49:10.910Z,25.70
2018-05-12T00:51:38.351Z,22.80
2018-05-12T00:54:05.796Z,22.20
2018-05-12T00:56:33.325Z,25.63
2018-05-12T00:59:00.887Z,27.20
2018-05-12T01:01:28.335Z,27.40
2018-05-12T01:03:55.902Z,26.97
2018-05-12T01:06:23.448Z,27.17
2018-05-12T01:08:50.923Z,27.93
2018-05-12T01:11:18.470Z,23.23
2018-05-12T01:13:45.991Z,28.10
2018-05-12T01:16:13.443Z,22.40
2018-05-12T01:18:40.871Z,27.00
2018-05-12T01:21:08.303Z,26.40
2018-05-12T01:23:35.849Z,27.17
2018-05-12T01:26:03.281Z,26.27
2018-05-12T01:28:30.728Z,27.17
2018-05-12T01:30:58.232Z,28.47
2018-05-12T01:33:25.675Z,24.50
2018-05-12T01:35:53.127Z,27.60
2018-05-12T01:38:21.565Z,26.83
2018-05-12T01:40:49.027Z,27.60
2018-05-12T01:43:16.463Z,26.63
2018-05-12T01:45:43.887Z,27.17
2018-05-12T01:48:11.321Z,30.50
2018-05-12T01:50:38.794Z,20.67
2018-05-12T01:53:06.238Z,26.57
2018-05-12T01:55:33.677Z,18.70
2018-05-12T01:58:01.131Z,21.53
2018-05-12T02:00:28.648Z,21.03
2018-05-12T02:02:56.125Z,23.33
2018-05-12T02:05:23.610Z,21.70
2018-05-12T02:07:51.062Z,23.37
2018-05-12T02:10:18.516Z,23.67
2018-05-12T02:12:45.952Z,22.57
2018-05-12T02:15:13.599Z,26.17
2018-05-12T02:17:41.043Z,24.60
2018-05-12T02:20:08.606Z,25.47
2018-05-12T02:22:36.054Z,25.70
2018-05-12T02:25:03.626Z,26.97
2018-05-12T02:27:31.055Z,26.83
2018-05-12T02:29:58.537Z,23.50
2018-05-12T02:32:25.993Z,25.83
2018-05-12T02:34:53.458Z,21.57
2018-05-12T02:37:20.911Z,21.63
2018-05-12T02:39:48.360Z,25.80
2018-05-12T02:42:15.820Z,23.10
2018-05-12T02:44:43.278Z,23.50
2018-05-12T02:47:10.741Z,22.07
2018-05-12T02:49:38.188Z,21.00
2018-05-12T02:52:05.644Z,20.43
2018-05-12T02:57:06.846Z,23.53
2018-05-12T02:59:34.318Z,22.17
2018-05-12T03:02:01.754Z,20.87
2018-05-12T03:04:29.467Z,24.63
2018-05-12T03:06:56.933Z,28.57
2018-05-12T03:09:24.371Z,24.70
2018-05-12T03:11:51.810Z,27.27
2018-05-12T03:14:19.251Z,28.17
2018-05-12T03:16:46.706Z,22.67
2018-05-12T03:19:14.226Z,25.30
2018-05-12T03:21:41.675Z,22.87
2018-05-12T03:24:09.141Z,26.60
2018-05-12T03:26:36.584Z,27.20
2018-05-12T03:29:04.026Z,28.17
2018-05-12T03:31:31.509Z,25.90
2018-05-12T03:33:58.971Z,27.40
2018-05-12T03:36:26.479Z,27.00
2018-05-12T03:38:53.944Z,23.60
2018-05-12T03:41:21.397Z,21.37
2018-05-12T03:43:48.923Z,24.37
2018-05-12T03:46:16.454Z,24.23
2018-05-12T03:48:44.391Z,25.70
2018-05-12T03:51:11.842Z,25.57
2018-05-12T03:53:39.277Z,26.77
2018-05-12T03:56:06.722Z,26.83
2018-05-12T03:58:34.157Z,27.23
2018-05-12T04:01:01.602Z,27.03
2018-05-12T04:03:29.070Z,23.10
2018-05-12T04:06:08.406Z,28.43
2018-05-12T04:08:47.653Z,27.73
2018-05-12T04:11:26.846Z,27.90
2018-05-12T04:13:54.279Z,29.50
2018-05-12T04:16:21.715Z,26.73
2018-05-12T04:18:49.193Z,28.13
2018-05-12T04:21:16.630Z,28.40
2018-05-12T04:23:44.073Z,27.97
2018-05-12T04:26:11.518Z,28.33
2018-05-12T04:28:38.961Z,29.77
2018-05-12T04:31:06.398Z,28.27
2018-05-12T04:33:33.890Z,29.00
2018-05-12T04:36:01.330Z,29.00
2018-05-12T04:38:28.777Z,29.87
2018-05-12T04:40:56.245Z,29.37
2018-05-12T04:43:23.703Z,27.73
2018-05-12T04:45:51.189Z,30.27
2018-05-12T04:48:18.827Z,26.10
2018-05-12T04:50:46.259Z,33.10
2018-05-12T04:53:13.706Z,32.20
2018-05-12T04:55:41.158Z,29.93
2018-05-12T04:58:08.614Z,30.87
2018-05-12T05:00:36.047Z,33.07
2018-05-12T05:03:03.573Z,27.83
2018-05-12T05:05:31.011Z,29.37
2018-05-12T05:07:58.548Z,29.13
2018-05-12T05:10:26.003Z,32.93
2018-05-12T05:12:53.449Z,26.40
2018-05-12T05:15:21.103Z,30.90
2018-05-12T05:17:48.527Z,30.60
2018-05-12T05:20:15.989Z,31.00
2018-05-12T05:22:43.437Z,29.73
2018-05-12T05:25:10.934Z,30.83
2018-05-12T05:27:38.346Z,27.20
2018-05-12T05:30:05.800Z,30.83
2018-05-12T05:32:33.243Z,31.37
2018-05-12T05:35:00.704Z,30.00
2018-05-12T05:37:28.171Z,31.10
2018-05-12T05:39:55.622Z,29.97
2018-05-12T05:42:23.064Z,30.37
2018-05-12T05:44:50.522Z,29.00
2018-05-12T05:47:18.136Z,32.63
2018-05-12T05:49:45.728Z,28.83
2018-05-12T05:52:13.212Z,30.10
2018-05-12T05:54:40.778Z,22.43
2018-05-12T05:57:08.251Z,30.97
2018-05-12T05:59:35.734Z,30.73
2018-05-12T06:02:03.201Z,18.90
2018-05-12T06:04:30.649Z,23.97
2018-05-12T06:06:58.095Z,29.73
2018-05-12T06:09:25.653Z,26.97
2018-05-12T06:11:54.282Z,20.47
2018-05-12T06:14:21.811Z,31.17
2018-05-12T06:16:49.284Z,29.10
2018-05-12T06:19:16.750Z,31.10
2018-05-12T06:21:44.193Z,36.97
2018-05-12T06:24:11.640Z,32.17
2018-05-12T06:26:39.081Z,29.57
2018-05-12T06:29:06.538Z,33.40
2018-05-12T06:31:34.078Z,34.73
2018-05-12T06:34:01.624Z,32.23
2018-05-12T06:36:29.066Z,23.13
2018-05-12T06:38:56.517Z,34.80
2018-05-12T06:41:23.983Z,27.67
2018-05-12T06:43:51.438Z,17.73
2018-05-12T06:46:18.898Z,26.57
2018-05-12T06:48:46.344Z,24.17
2018-05-12T06:51:13.787Z,29.70
2018-05-12T06:53:41.220Z,37.53
2018-05-12T06:56:08.671Z,30.93
2018-05-12T06:58:36.115Z,24.03
2018-05-12T07:01:03.552Z,31.43
2018-05-12T07:03:30.993Z,27.57
2018-05-12T07:05:58.444Z,37.33
2018-05-12T07:08:25.943Z,22.93
2018-05-12T07:10:53.391Z,33.00
2018-05-12T07:13:20.845Z,33.33
2018-05-12T07:15:48.388Z,24.70
2018-05-12T07:18:15.834Z,33.30
2018-05-12T07:20:43.286Z,30.37
2018-05-12T07:23:10.737Z,26.03
2018-05-12T07:25:38.193Z,31.60
2018-05-12T07:28:05.751Z,36.53
2018-05-12T07:30:33.186Z,35.33
2018-05-12T07:33:00.724Z,21.73
2018-05-12T07:35:28.179Z,34.77
2018-05-12T07:37:55.617Z,32.40
2018-05-12T07:40:23.068Z,38.97
2018-05-12T07:42:50.498Z,31.43
2018-05-12T07:45:18.016Z,34.77
2018-05-12T07:47:45.548Z,32.10
2018-05-12T07:50:12.986Z,37.23
2018-05-12T07:52:40.430Z,19.50
2018-05-12T07:55:07.870Z,32.13
2018-05-12T07:57:35.387Z,34.33
2018-05-12T08:00:02.829Z,26.97
2018-05-12T08:02:30.389Z,23.40
2018-05-12T08:04:57.837Z,26.10
2018-05-12T08:07:25.273Z,33.07
2018-05-12T08:09:52.724Z,24.97
2018-05-12T08:12:20.289Z,26.33
2018-05-12T08:14:47.729Z,23.97
2018-05-12T08:17:15.245Z,25.30
2018-05-12T08:19:42.707Z,34.67
2018-05-12T08:22:10.154Z,34.40
2018-05-12T08:24:37.576Z,29.23
2018-05-12T08:27:05.048Z,33.67
2018-05-12T08:29:32.525Z,28.93
2018-05-12T08:31:59.956Z,31.40
2018-05-12T08:34:27.401Z,30.93
2018-05-12T08:36:54.841Z,22.77
2018-05-12T08:39:22.281Z,26.00
2018-05-12T08:41:50.227Z,26.87
2018-05-12T08:44:17.674Z,28.67
2018-05-12T08:46:45.121Z,18.80
2018-05-12T08:49:12.552Z,28.73
2018-05-12T08:51:40.039Z,21.73
2018-05-12T08:54:07.502Z,24.27
2018-05-12T08:56:34.970Z,23.70
2018-05-12T08:59:02.408Z,24.97
2018-05-12T09:01:29.885Z,31.80
2018-05-12T09:03:57.319Z,22.33
2018-05-12T09:06:24.783Z,28.57
2018-05-12T09:08:52.269Z,21.57
2018-05-12T09:11:19.875Z,22.23
2018-05-12T09:13:47.360Z,20.97
2018-05-12T09:16:14.817Z,23.90
2018-05-12T09:18:42.283Z,21.27
2018-05-12T09:21:09.842Z,24.30
2018-05-12T09:23:37.289Z,21.00
2018-05-12T09:26:05.418Z,24.77
2018-05-12T09:28:32.931Z,19.00
2018-05-12T09:31:00.377Z,19.70
2018-05-12T09:33:27.937Z,26.70
2018-05-12T09:35:55.393Z,15.87
2018-05-12T09:38:22.930Z,29.20
2018-05-12T09:40:50.398Z,26.87
2018-05-12T09:43:17.851Z,25.17
2018-05-12T09:45:45.290Z,28.67
2018-05-12T09:48:12.732Z,20.30
2018-05-12T09:50:40.260Z,21.17
2018-05-12T09:53:07.716Z,27.07
2018-05-12T09:55:35.157Z,23.43
2018-05-12T09:58:02.692Z,15.40
2018-05-12T10:00:30.154Z,18.03
2018-05-12T10:02:57.640Z,13.47
2018-05-12T10:05:25.115Z,15.07
2018-05-12T10:07:57.640Z,16.93
2018-05-12T10:10:25.094Z,18.27
2018-05-12T10:12:52.590Z,11.38
2018-05-12T10:15:20.039Z,15.43
2018-05-12T10:17:47.502Z,13.77
2018-05-12T10:20:14.979Z,11.32
2018-05-12T10:22:42.540Z,9.30
2018-05-12T10:25:10.009Z,9.10
2018-05-12T10:27:37.436Z,8.32
2018-05-12T10:30:04.868Z,8.18
2018-05-12T10:32:32.307Z,7.07
2018-05-12T10:34:59.790Z,8.25
2018-05-12T10:37:27.234Z,8.40
2018-05-12T10:39:54.678Z,7.70
2018-05-12T10:42:22.354Z,8.52
2018-05-12T10:44:49.803Z,7.05
2018-05-12T10:47:17.244Z,8.20
2018-05-12T10:49:44.687Z,8.00
2018-05-12T10:52:12.182Z,9.95
2018-05-12T10:54:39.620Z,7.32
2018-05-12T10:57:07.205Z,8.48
2018-05-12T10:59:34.644Z,9.63
2018-05-12T11:02:02.230Z,12.10
2018-05-12T11:04:29.581Z,10.63
2018-05-12T11:06:57.005Z,8.35
2018-05-12T11:09:24.510Z,8.55
2018-05-12T11:11:51.942Z,9.38
2018-05-12T11:14:19.386Z,8.80
2018-05-12T11:16:46.829Z,6.70
2018-05-12T11:19:14.329Z,6.47
2018-05-12T11:21:41.898Z,6.35
2018-05-12T11:24:09.246Z,6.95
2018-05-12T11:26:36.722Z,9.63
2018-05-12T11:29:04.284Z,7.78
2018-05-12T11:31:31.728Z,6.18
2018-05-12T11:33:59.183Z,6.10
2018-05-12T11:36:26.631Z,5.50
2018-05-12T11:38:54.075Z,5.97
2018-05-12T11:41:21.536Z,5.10
2018-05-12T11:43:49.047Z,5.00
2018-05-12T11:46:16.485Z,4.25
2018-05-12T11:48:43.941Z,4.30
2018-05-12T11:51:11.384Z,4.28
2018-05-12T11:53:38.811Z,4.40
2018-05-12T11:56:06.252Z,4.53
2018-05-12T11:58:33.704Z,4.57
2018-05-12T12:01:01.160Z,4.60
2018-05-12T12:03:28.639Z,4.65
2018-05-12T12:05:56.086Z,6.70
2018-05-12T12:08:23.543Z,4.75
2018-05-12T12:10:51.019Z,3.00
2018-05-12T12:13:18.440Z,3.67
2018-05-12T12:15:45.855Z,3.53
2018-05-12T12:18:13.345Z,3.33
2018-05-12T12:20:40.781Z,3.22
2018-05-12T12:23:08.250Z,3.55
2018-05-12T12:25:35.685Z,3.53
2018-05-12T12:28:03.111Z,3.08
2018-05-12T12:30:30.571Z,3.47
2018-05-12T12:32:58.058Z,3.40
2018-05-12T12:35:25.610Z,3.00
2018-05-12T12:37:53.057Z,3.05
2018-05-12T12:40:20.499Z,3.10
2018-05-12T12:42:47.977Z,3.40
2018-05-12T12:45:15.439Z,3.15
2018-05-12T12:47:42.885Z,3.35
2018-05-12T12:50:10.314Z,3.15
2018-05-12T12:52:37.743Z,3.47
2018-05-12T12:55:05.290Z,2.85
2018-05-12T12:57:32.821Z,2.80
2018-05-12T13:00:00.283Z,2.72
2018-05-12T13:02:27.722Z,3.30
2018-05-12T13:04:55.260Z,2.83
2018-05-12T13:07:22.637Z,2.78
2018-05-12T13:09:50.091Z,3.35
2018-05-12T13:12:17.512Z,2.85
2018-05-12T13:14:44.949Z,2.60
2018-05-12T13:17:12.474Z,4.05
2018-05-12T13:19:39.942Z,2.95
2018-05-12T13:22:07.521Z,2.80
2018-05-12T13:24:34.954Z,2.65
2018-05-12T13:27:02.476Z,3.03
2018-05-12T13:29:29.913Z,2.97
2018-05-12T13:31:57.432Z,2.70
2018-05-12T13:34:24.878Z,2.60
2018-05-12T13:36:52.302Z,2.95
2018-05-12T13:39:19.757Z,3.08
2018-05-12T13:41:47.198Z,3.05
2018-05-12T13:44:14.630Z,3.17
2018-05-12T13:46:42.061Z,3.22
2018-05-12T13:49:09.639Z,3.10
2018-05-12T13:51:37.132Z,3.10
2018-05-12T13:54:04.615Z,3.03
2018-05-12T13:56:32.048Z,2.90
2018-05-12T13:58:59.526Z,2.95
2018-05-12T14:01:26.940Z,3.22
2018-05-12T14:03:54.413Z,3.10
2018-05-12T14:06:21.943Z,2.97
2018-05-12T14:08:49.389Z,3.40
2018-05-12T14:11:16.865Z,2.65
2018-05-12T14:13:44.401Z,2.83
2018-05-12T14:16:11.950Z,3.22
2018-05-12T14:18:39.309Z,3.00
2018-05-12T14:21:06.738Z,2.62
2018-05-12T14:23:34.178Z,2.83
2018-05-12T14:26:01.625Z,2.70
2018-05-12T14:28:29.066Z,2.75
2018-05-12T14:30:56.490Z,2.80
2018-05-12T14:33:23.937Z,2.78
2018-05-12T14:35:51.362Z,2.70
2018-05-12T14:38:18.811Z,2.70
2018-05-12T14:40:46.259Z,2.55
2018-05-12T14:43:13.786Z,2.58
2018-05-12T14:45:41.237Z,3.10
2018-05-12T14:48:08.694Z,2.80
2018-05-12T14:50:36.150Z,3.50
2018-05-12T14:53:04.080Z,3.10
2018-05-12T14:55:31.514Z,3.37
2018-05-12T14:57:58.987Z,3.42
2018-05-12T15:00:26.490Z,3.12
2018-05-12T15:02:53.950Z,3.22
2018-05-12T15:05:21.421Z,3.33
2018-05-12T15:07:48.873Z,3.37
2018-05-12T15:10:16.306Z,4.15
2018-05-12T15:12:43.752Z,3.75
2018-05-12T15:15:11.208Z,3.70
2018-05-12T15:17:38.697Z,3.65
2018-05-12T15:20:06.146Z,4.40
2018-05-12T15:22:33.598Z,4.22
2018-05-12T15:25:01.096Z,3.67
2018-05-12T15:27:28.576Z,4.10
2018-05-12T15:29:56.214Z,3.50
2018-05-12T15:32:23.775Z,4.20
2018-05-12T15:34:51.246Z,4.18
2018-05-12T15:37:18.718Z,4.05
2018-05-12T15:39:46.140Z,3.80
2018-05-12T15:42:13.578Z,3.78
2018-05-12T15:44:41.020Z,3.87
2018-05-12T15:47:08.459Z,3.08
2018-05-12T15:49:35.977Z,3.08
2018-05-12T15:52:03.534Z,3.40
2018-05-12T15:54:30.969Z,3.30
2018-05-12T15:56:58.413Z,3.08
2018-05-12T15:59:25.953Z,3.37
2018-05-12T16:01:53.430Z,3.10
2018-05-12T16:04:20.861Z,3.25
2018-05-12T16:06:48.322Z,3.67
2018-05-12T16:09:15.918Z,3.15
2018-05-12T16:11:43.376Z,5.00
2018-05-12T16:14:10.800Z,5.10
2018-05-12T16:16:38.262Z,3.90
2018-05-12T16:19:06.150Z,5.60
2018-05-12T16:21:33.585Z,4.50
2018-05-12T16:24:01.058Z,4.10
2018-05-12T16:26:28.513Z,3.35
2018-05-12T16:28:55.987Z,3.25
2018-05-12T16:31:23.553Z,3.42
2018-05-12T16:33:50.921Z,3.60
2018-05-12T16:36:18.355Z,3.80
2018-05-12T16:38:45.776Z,3.08
2018-05-12T16:41:13.276Z,4.20
2018-05-12T16:43:40.794Z,4.15
2018-05-12T16:46:08.273Z,4.03
2018-05-12T16:48:35.708Z,8.98
2018-05-12T16:51:03.384Z,3.22
2018-05-12T16:53:30.737Z,3.47
2018-05-12T16:55:58.168Z,5.18
2018-05-12T16:58:25.666Z,3.85
2018-05-12T17:00:53.127Z,3.83
2018-05-12T17:03:20.649Z,4.05
2018-05-12T17:05:48.034Z,3.70
2018-05-12T17:08:15.537Z,3.40
2018-05-12T17:10:43.050Z,3.90
2018-05-12T17:13:10.540Z,3.25
2018-05-12T17:15:37.926Z,3.67
2018-05-12T17:18:05.367Z,4.25
2018-05-12T17:20:32.995Z,3.70
2018-05-12T17:23:00.464Z,5.80
2018-05-12T17:25:27.913Z,4.53
2018-05-12T17:27:55.347Z,3.67
2018-05-12T17:30:22.795Z,4.60
2018-05-12T17:32:50.376Z,4.87
2018-05-12T17:35:17.850Z,4.15
2018-05-12T17:37:45.337Z,4.25
2018-05-12T17:40:12.850Z,5.57
2018-05-12T17:42:40.289Z,4.07
2018-05-12T17:45:07.750Z,5.12
2018-05-12T17:47:35.204Z,5.00
2018-05-12T17:50:02.776Z,5.50
2018-05-12T17:52:30.122Z,4.57
2018-05-12T17:54:57.593Z,4.90
2018-05-12T17:57:25.024Z,4.95
2018-05-12T17:59:52.465Z,4.80
2018-05-12T18:02:19.905Z,4.60
2018-05-12T18:04:47.427Z,5.28
2018-05-12T18:07:14.989Z,5.35
2018-05-12T18:12:07.017Z,4.95
2018-05-12T18:14:34.468Z,5.18
2018-05-12T18:17:01.946Z,5.17
2018-05-12T18:19:29.399Z,5.50
2018-05-12T18:21:56.875Z,5.10
2018-05-12T18:24:24.412Z,5.07
2018-05-12T18:26:51.936Z,4.57
2018-05-12T18:29:19.400Z,5.00
2018-05-12T18:31:46.831Z,5.13
2018-05-12T18:34:14.325Z,5.67
2018-05-12T18:36:41.793Z,5.53
2018-05-12T18:39:09.267Z,5.80
2018-05-12T18:41:36.702Z,5.57
2018-05-12T18:44:04.129Z,5.10
2018-05-12T18:46:31.592Z,4.53
2018-05-12T18:48:59.718Z,5.00
2018-05-12T18:51:27.146Z,5.00
2018-05-12T18:53:54.564Z,4.80
2018-05-12T18:56:21.994Z,4.40
2018-05-12T18:58:49.426Z,4.90
2018-05-12T19:01:16.836Z,4.53
2018-05-12T19:03:44.295Z,5.10
2018-05-12T19:06:11.846Z,4.83
2018-05-12T19:08:39.364Z,5.37
2018-05-12T19:11:06.928Z,7.77
2018-05-12T19:13:34.393Z,5.30
2018-05-12T19:16:01.808Z,5.83
2018-05-12T19:18:29.255Z,5.50
2018-05-12T19:20:56.702Z,6.53
2018-05-12T19:23:24.147Z,6.73
2018-05-12T19:25:51.594Z,6.20
2018-05-12T19:28:19.027Z,6.20
2018-05-12T19:30:46.578Z,6.07
2018-05-12T19:33:14.024Z,5.93
2018-05-12T19:35:41.486Z,5.30
2018-05-12T19:38:08.912Z,5.17
2018-05-12T19:40:36.363Z,7.33
2018-05-12T19:43:03.966Z,6.70
2018-05-12T19:45:31.392Z,6.20
2018-05-12T19:47:58.846Z,6.17
2018-05-12T19:50:26.334Z,6.13
2018-05-12T19:52:53.762Z,6.80
2018-05-12T19:55:21.207Z,5.73
2018-05-12T19:57:48.707Z,5.57
2018-05-12T20:00:16.168Z,5.87
2018-05-12T20:02:43.691Z,5.60
2018-05-12T20:05:11.113Z,6.37
2018-05-12T20:07:38.642Z,6.00
2018-05-12T20:10:06.120Z,6.60
2018-05-12T20:12:33.556Z,6.70
2018-05-12T20:15:01.014Z,5.97
2018-05-12T20:17:28.460Z,7.20
2018-05-12T20:19:55.937Z,5.90
2018-05-12T20:22:23.522Z,6.13
2018-05-12T20:24:51.059Z,6.10
2018-05-12T20:27:18.500Z,6.47
2018-05-12T20:29:45.994Z,6.77
2018-05-12T20:32:13.888Z,6.23
2018-05-12T20:34:41.445Z,5.30
2018-05-12T20:37:08.954Z,6.33
2018-05-12T20:39:36.439Z,6.10
2018-05-12T20:42:04.105Z,6.13
2018-05-12T20:44:31.543Z,6.10
2018-05-12T20:46:59.091Z,6.17
2018-05-12T20:49:26.610Z,6.53
2018-05-12T20:51:54.702Z,7.30
2018-05-12T20:54:22.201Z,7.10
2018-05-12T20:56:49.662Z,7.17
2018-05-12T20:59:17.141Z,7.50
2018-05-12T21:01:44.609Z,7.10
2018-05-12T21:04:12.058Z,7.87
2018-05-12T21:06:39.554Z,6.67
2018-05-12T21:09:06.991Z,6.87
2018-05-12T21:11:34.466Z,7.00
2018-05-12T21:14:01.905Z,7.07
2018-05-12T21:16:29.354Z,7.20
2018-05-12T21:18:57.029Z,7.20
2018-05-12T21:21:24.508Z,6.83
2018-05-12T21:23:52.004Z,7.30
2018-05-12T21:26:19.418Z,8.00
2018-05-12T21:28:46.868Z,7.17
2018-05-12T21:31:14.565Z,6.97
2018-05-12T21:33:42.046Z,7.30
2018-05-12T21:36:09.527Z,8.67
2018-05-12T21:38:36.986Z,7.33
2018-05-12T21:41:04.435Z,7.60
2018-05-12T21:43:31.901Z,7.73
2018-05-12T21:45:59.638Z,7.90
2018-05-12T21:48:27.189Z,7.03
2018-05-12T21:50:54.659Z,7.07
2018-05-12T21:53:22.161Z,8.90
2018-05-12T21:55:49.721Z,8.20
2018-05-12T21:58:17.162Z,8.43
2018-05-12T22:00:44.594Z,9.90
2018-05-12T22:03:12.125Z,9.73
2018-05-12T22:05:39.684Z,8.37
2018-05-12T22:08:08.218Z,8.27
2018-05-12T22:10:35.672Z,7.90
2018-05-12T22:13:03.202Z,7.53
2018-05-12T22:15:30.663Z,7.47
2018-05-12T22:17:58.105Z,7.40
2018-05-12T22:20:25.599Z,6.90
2018-05-12T22:22:53.065Z,6.80
2018-05-12T22:25:20.856Z,6.60
2018-05-12T22:27:48.326Z,7.00
2018-05-12T22:30:15.875Z,6.40
2018-05-12T22:32:43.346Z,6.60
2018-05-12T22:35:10.909Z,6.70
2018-05-12T22:37:38.588Z,6.20
2018-05-12T22:40:06.012Z,6.60
2018-05-12T22:42:33.526Z,6.30
2018-05-12T22:45:00.995Z,6.00
2018-05-12T22:47:28.447Z,6.87
2018-05-12T22:49:55.918Z,5.97
2018-05-12T22:52:23.543Z,5.30
2018-05-12T22:54:51.002Z,5.83
2018-05-12T22:57:18.531Z,5.50
2018-05-12T22:59:46.086Z,6.37
2018-05-12T23:02:13.597Z,6.90
2018-05-12T23:04:41.116Z,6.43
2018-05-12T23:07:08.640Z,6.40
2018-05-12T23:09:36.106Z,6.70
2018-05-12T23:12:03.556Z,6.20
2018-05-12T23:14:31.071Z,5.83
2018-05-12T23:16:58.608Z,5.33
2018-05-12T23:19:26.068Z,5.60
2018-05-12T23:21:54.060Z,5.80
2018-05-12T23:24:21.522Z,6.30
2018-05-12T23:26:49.019Z,5.87
2018-05-12T23:29:16.503Z,5.43
2018-05-12T23:31:44.026Z,5.90
2018-05-12T23:34:11.469Z,5.60
2018-05-12T23:36:38.941Z,5.93
2018-05-12T23:39:06.432Z,6.43
2018-05-12T23:41:33.879Z,6.50
2018-05-12T23:44:01.357Z,6.93
2018-05-12T23:46:28.912Z,6.50
2018-05-12T23:48:56.416Z,7.40
2018-05-12T23:51:24.032Z,6.37
2018-05-12T23:53:51.480Z,7.00
2018-05-12T23:56:18.998Z,6.00
2018-05-12T23:58:46.433Z,6.00
